createdAt,value
2018-11-03T00:02:57.059Z,84.52
2018-11-03T00:06:04.294Z,85.74
2018-11-03T00:09:11.433Z,85.48
2018-11-03T00:12:18.277Z,85.02
2018-11-03T00:15:30.349Z,84.59
2018-11-03T00:18:35.560Z,84.16
2018-11-03T00:21:40.619Z,84.36
2018-11-03T00:24:45.630Z,85.25
2018-11-03T00:27:52.853Z,85.39
2018-11-03T00:31:19.707Z,84.55
2018-11-03T00:34:26.383Z,85.81
2018-11-03T00:37:31.730Z,85.15
2018-11-03T00:40:46.345Z,85.66
2018-11-03T00:43:51.429Z,85.05
2018-11-03T00:46:56.518Z,85.64
2018-11-03T00:50:03.351Z,85.30
2018-11-03T00:53:09.966Z,85.71
2018-11-03T00:56:16.618Z,84.84
2018-11-03T00:59:21.674Z,85.10
2018-11-03T01:02:28.405Z,85.55
2018-11-03T01:05:35.051Z,84.82
2018-11-03T01:08:40.083Z,84.12
2018-11-03T01:11:45.341Z,84.37
2018-11-03T01:14:52.273Z,85.27
2018-11-03T01:17:57.279Z,84.95
2018-11-03T01:21:02.690Z,84.03
2018-11-03T01:24:07.761Z,83.98
2018-11-03T01:27:12.787Z,84.98
2018-11-03T01:30:17.809Z,84.53
2018-11-03T01:33:22.822Z,84.84
2018-11-03T01:36:27.858Z,84.92
2018-11-03T01:39:34.414Z,84.52
2018-11-03T01:42:39.458Z,84.56
2018-11-03T01:45:46.527Z,85.35
2018-11-03T01:48:51.597Z,86.09
2018-11-03T01:51:56.621Z,85.13
2018-11-03T01:55:05.889Z,84.16
2018-11-03T01:58:12.515Z,84.08
2018-11-03T02:01:19.617Z,85.17
2018-11-03T02:04:24.629Z,84.99
2018-11-03T02:07:31.716Z,85.65
2018-11-03T02:10:38.494Z,85.39
2018-11-03T02:13:43.502Z,85.24
2018-11-03T02:16:48.541Z,84.54
2018-11-03T02:19:55.691Z,85.42
2018-11-03T02:23:00.710Z,85.69
2018-11-03T02:26:07.491Z,85.58
2018-11-03T02:29:12.478Z,86.24
2018-11-03T02:32:17.498Z,84.95
2018-11-03T02:35:22.538Z,84.70
2018-11-03T02:38:27.540Z,84.99
2018-11-03T02:41:32.550Z,85.15
2018-11-03T02:44:37.555Z,85.46
2018-11-03T02:47:42.652Z,84.69
2018-11-03T02:50:47.651Z,85.58
2018-11-03T02:53:52.645Z,84.87
2018-11-03T02:56:57.682Z,85.62
2018-11-03T03:00:02.810Z,86.19
2018-11-03T03:03:07.888Z,86.34
2018-11-03T03:06:12.941Z,85.69
2018-11-03T03:09:17.980Z,86.32
2018-11-03T03:12:22.998Z,84.52
2018-11-03T03:15:28.001Z,85.53
2018-11-03T03:18:32.990Z,85.12
2018-11-03T03:21:39.767Z,85.43
2018-11-03T03:24:46.353Z,86.17
2018-11-03T03:27:51.446Z,84.67
2018-11-03T03:30:58.569Z,85.03
2018-11-03T03:34:05.690Z,84.51
2018-11-03T03:37:10.693Z,84.78
2018-11-03T03:40:15.704Z,85.74
2018-11-03T03:43:20.717Z,85.37
2018-11-03T03:46:25.710Z,85.56
2018-11-03T03:49:30.718Z,85.68
2018-11-03T03:52:35.782Z,86.19
2018-11-03T03:55:40.843Z,85.98
2018-11-03T03:58:45.869Z,85.93
2018-11-03T04:01:52.751Z,85.73
2018-11-03T04:04:57.744Z,86.09
2018-11-03T04:08:04.495Z,85.08
2018-11-03T04:11:09.526Z,85.46
2018-11-03T04:14:14.535Z,85.03
2018-11-03T04:17:19.586Z,85.52
2018-11-03T04:20:24.605Z,84.49
2018-11-03T04:23:31.294Z,85.81
2018-11-03T04:26:36.297Z,84.87
2018-11-03T04:29:41.311Z,85.76
2018-11-03T04:32:47.899Z,84.94
2018-11-03T04:35:54.778Z,84.65
2018-11-03T04:38:59.794Z,84.82
2018-11-03T04:42:04.838Z,84.46
2018-11-03T04:45:10.664Z,84.58
2018-11-03T04:48:15.665Z,85.63
2018-11-03T04:51:20.697Z,85.35
2018-11-03T04:54:25.857Z,85.24
2018-11-03T04:57:30.893Z,84.84
2018-11-03T05:00:37.614Z,84.87
2018-11-03T05:03:44.353Z,85.25
2018-11-03T05:06:49.399Z,85.53
2018-11-03T05:09:54.500Z,85.22
2018-11-03T05:15:13.143Z,86.22
2018-11-03T05:18:18.150Z,86.30
2018-11-03T05:21:23.569Z,85.20
2018-11-03T05:24:28.443Z,85.41
2018-11-03T05:27:33.449Z,85.85
2018-11-03T05:30:38.447Z,84.73
2018-11-03T05:33:43.456Z,85.49
2018-11-03T05:36:48.470Z,85.15
2018-11-03T05:39:53.491Z,85.29
2018-11-03T05:42:58.485Z,86.08
2018-11-03T05:46:03.581Z,84.82
2018-11-03T05:49:08.915Z,85.14
2018-11-03T05:52:13.928Z,86.15
2018-11-03T05:55:19.023Z,85.60
2018-11-03T05:58:24.054Z,85.30
2018-11-03T06:01:29.073Z,85.90
2018-11-03T06:04:34.080Z,85.22
2018-11-03T06:07:39.095Z,86.00
2018-11-03T06:10:44.131Z,85.01
2018-11-03T06:13:49.143Z,85.19
2018-11-03T06:16:54.189Z,85.47
2018-11-03T06:19:59.181Z,86.25
2018-11-03T06:23:04.451Z,85.74
2018-11-03T06:26:09.340Z,86.52
2018-11-03T06:29:14.437Z,86.28
2018-11-03T06:32:19.475Z,86.07
2018-11-03T06:35:24.553Z,85.30
2018-11-03T06:38:29.530Z,84.77
2018-11-03T06:41:34.609Z,84.57
2018-11-03T06:44:39.613Z,85.47
2018-11-03T06:47:51.474Z,84.75
2018-11-03T06:50:58.713Z,85.25
2018-11-03T06:54:04.194Z,85.39
2018-11-03T06:57:09.242Z,84.45
2018-11-03T07:00:14.271Z,84.22
2018-11-03T07:03:19.274Z,84.24
2018-11-03T07:06:24.449Z,85.13
2018-11-03T07:09:29.470Z,84.44
2018-11-03T07:12:34.669Z,84.32
2018-11-03T07:15:39.593Z,83.74
2018-11-03T07:18:44.589Z,83.89
2018-11-03T07:21:49.703Z,83.90
2018-11-03T07:24:54.644Z,84.06
2018-11-03T07:27:59.683Z,84.04
2018-11-03T07:31:05.261Z,83.51
2018-11-03T07:34:10.262Z,83.86
2018-11-03T07:37:15.268Z,84.26
2018-11-03T07:40:20.300Z,84.63
2018-11-03T07:43:26.467Z,83.95
2018-11-03T07:46:36.297Z,84.15
2018-11-03T07:49:41.441Z,84.22
2018-11-03T07:52:46.451Z,82.87
2018-11-03T07:55:51.555Z,82.53
2018-11-03T07:58:56.614Z,83.33
2018-11-03T08:02:04.254Z,82.36
2018-11-03T08:05:10.685Z,80.78
2018-11-03T08:08:19.169Z,81.09
2018-11-03T08:11:26.346Z,80.47
2018-11-03T08:14:31.582Z,81.03
2018-11-03T08:17:37.330Z,81.37
2018-11-03T08:20:44.465Z,80.35
2018-11-03T08:23:51.552Z,74.60
2018-11-03T08:26:58.630Z,69.92
2018-11-03T08:30:07.431Z,68.95
2018-11-03T08:33:21.198Z,68.01
2018-11-03T08:36:30.299Z,67.15
2018-11-03T08:39:37.623Z,65.98
2018-11-03T08:42:50.828Z,67.26
2018-11-03T08:45:56.003Z,68.29
2018-11-03T08:49:01.252Z,68.30
2018-11-03T08:52:07.498Z,66.49
2018-11-03T08:55:14.590Z,64.82
2018-11-03T08:58:19.636Z,65.70
2018-11-03T09:01:24.776Z,66.33
2018-11-03T09:04:29.790Z,66.10
2018-11-03T09:07:35.288Z,63.56
2018-11-03T09:10:40.322Z,62.54
2018-11-03T09:13:45.396Z,61.31
2018-11-03T09:16:50.713Z,60.07
2018-11-03T09:19:55.786Z,57.01
2018-11-03T09:23:00.843Z,57.07
2018-11-03T09:26:05.967Z,57.80
2018-11-03T09:29:11.010Z,58.89
2018-11-03T09:32:20.331Z,58.18
2018-11-03T09:35:25.372Z,57.80
2018-11-03T09:38:30.526Z,57.20
2018-11-03T09:41:35.896Z,55.95
2018-11-03T09:44:40.966Z,56.55
2018-11-03T09:47:46.012Z,57.10
2018-11-03T09:50:52.841Z,55.98
2018-11-03T09:53:59.557Z,58.38
2018-11-03T09:57:05.305Z,58.56
2018-11-03T10:00:13.216Z,58.37
2018-11-03T10:03:23.138Z,58.96
2018-11-03T10:06:29.941Z,56.45
2018-11-03T10:09:38.663Z,57.62
2018-11-03T10:12:46.832Z,58.47
2018-11-03T10:15:51.847Z,58.04
2018-11-03T10:18:56.875Z,59.52
2018-11-03T10:22:03.856Z,58.95
2018-11-03T10:25:13.109Z,59.38
2018-11-03T10:28:18.156Z,59.31
2018-11-03T10:31:23.199Z,57.70
2018-11-03T10:34:30.034Z,58.11
2018-11-03T10:41:06.365Z,57.89
2018-11-03T10:47:42.383Z,58.24
2018-11-03T10:50:49.422Z,56.70
2018-11-03T10:53:55.324Z,57.00
2018-11-03T10:57:00.606Z,56.23
2018-11-03T11:00:17.643Z,56.67
2018-11-03T11:03:34.325Z,55.70
2018-11-03T11:07:00.630Z,55.09
2018-11-03T11:10:17.181Z,57.37
2018-11-03T11:13:26.662Z,55.31
2018-11-03T11:16:33.880Z,55.40
2018-11-03T11:19:38.864Z,56.80
2018-11-03T11:22:47.557Z,55.25
2018-11-03T11:26:05.451Z,55.45
2018-11-03T11:29:10.793Z,56.70
2018-11-03T11:32:17.874Z,56.04
2018-11-03T11:35:24.743Z,54.65
2018-11-03T11:38:41.382Z,53.53
2018-11-03T11:41:48.014Z,53.19
2018-11-03T11:44:56.138Z,51.54
2018-11-03T11:48:03.175Z,53.27
2018-11-03T11:51:08.310Z,52.63
2018-11-03T11:54:17.605Z,51.40
2018-11-03T11:57:24.784Z,51.04
2018-11-03T12:00:29.837Z,52.29
2018-11-03T12:03:34.994Z,51.43
2018-11-03T12:06:44.065Z,51.92
2018-11-03T12:09:49.438Z,49.99
2018-11-03T12:15:01.171Z,51.12
2018-11-03T12:18:06.520Z,49.99
2018-11-03T12:28:12.341Z,48.39
2018-11-03T12:31:17.382Z,49.00
2018-11-03T12:34:22.418Z,49.28
2018-11-03T12:37:29.854Z,49.41
2018-11-03T12:40:35.109Z,48.00
2018-11-03T12:43:41.890Z,47.83
2018-11-03T12:46:47.060Z,49.93
2018-11-03T12:49:58.111Z,48.40
2018-11-03T12:53:03.286Z,48.66
2018-11-03T12:56:08.340Z,47.58
2018-11-03T12:59:13.437Z,48.13
2018-11-03T13:02:18.607Z,48.86
2018-11-03T13:05:23.697Z,48.53
2018-11-03T13:08:29.610Z,49.05
2018-11-03T13:11:34.710Z,50.33
2018-11-03T13:14:39.690Z,49.03
2018-11-03T13:17:44.781Z,48.48
2018-11-03T13:20:49.953Z,48.48
2018-11-03T13:23:55.152Z,49.29
2018-11-03T13:27:00.154Z,48.98
2018-11-03T13:30:06.676Z,49.00
2018-11-03T13:33:11.649Z,49.55
2018-11-03T13:36:17.049Z,49.65
2018-11-03T13:39:22.083Z,49.86
2018-11-03T13:42:27.099Z,48.97
2018-11-03T13:45:32.183Z,47.72
2018-11-03T13:48:37.231Z,50.55
2018-11-03T13:51:42.281Z,50.75
2018-11-03T13:54:47.309Z,49.48
2018-11-03T13:57:52.502Z,52.11
2018-11-03T14:00:57.554Z,52.04
2018-11-03T14:04:02.722Z,49.83
2018-11-03T14:07:07.886Z,50.74
2018-11-03T14:10:14.110Z,50.11
2018-11-03T14:13:19.408Z,51.69
2018-11-03T14:16:24.470Z,51.16
2018-11-03T14:19:29.833Z,51.53
2018-11-03T14:22:35.613Z,52.77
2018-11-03T14:25:40.739Z,51.02
2018-11-03T14:28:45.825Z,52.71
2018-11-03T14:31:50.896Z,51.61
2018-11-03T14:34:57.103Z,52.93
2018-11-03T14:38:02.207Z,53.18
2018-11-03T14:41:07.234Z,53.81
2018-11-03T14:44:12.656Z,54.07
2018-11-03T14:47:17.689Z,55.05
2018-11-03T14:50:27.305Z,54.58
2018-11-03T14:53:33.479Z,53.39
2018-11-03T14:56:38.588Z,56.22
2018-11-03T14:59:43.649Z,55.25
2018-11-03T15:02:48.691Z,56.05
2018-11-03T15:05:53.707Z,56.40
2018-11-03T15:08:58.842Z,57.33
2018-11-03T15:12:04.100Z,56.80
2018-11-03T15:15:13.109Z,57.14
2018-11-03T15:25:19.693Z,60.08
2018-11-03T15:28:24.721Z,60.90
2018-11-03T15:31:30.009Z,60.68
2018-11-03T15:34:35.101Z,62.81
2018-11-03T15:37:40.388Z,63.20
2018-11-03T15:40:45.446Z,63.30
2018-11-03T15:43:51.623Z,63.02
2018-11-03T15:46:56.781Z,64.77
2018-11-03T15:50:01.913Z,65.73
2018-11-03T15:53:06.981Z,65.90
2018-11-03T15:56:12.524Z,65.82
2018-11-03T15:59:17.579Z,67.42
2018-11-03T16:02:22.632Z,67.65
2018-11-03T16:05:27.686Z,69.25
2018-11-03T16:08:32.713Z,69.28
2018-11-03T16:11:37.745Z,69.20
2018-11-03T16:14:42.783Z,71.26
2018-11-03T16:17:47.764Z,70.21
2018-11-03T16:20:52.825Z,70.65
2018-11-03T16:23:57.836Z,71.14
2018-11-03T16:27:02.883Z,71.53
2018-11-03T16:30:10.925Z,72.90
2018-11-03T16:33:15.960Z,72.07
2018-11-03T16:36:20.971Z,72.68
2018-11-03T16:39:26.014Z,73.83
2018-11-03T16:42:31.070Z,73.54
2018-11-03T16:45:36.287Z,74.50
2018-11-03T16:48:41.755Z,75.52
2018-11-03T16:51:46.776Z,75.63
2018-11-03T16:54:51.769Z,75.12
2018-11-03T17:01:27.137Z,76.09
2018-11-03T17:04:32.207Z,76.74
2018-11-03T17:11:07.714Z,77.10
2018-11-03T17:14:12.726Z,77.21
2018-11-03T17:17:17.742Z,76.66
2018-11-03T17:20:23.857Z,77.17
2018-11-03T17:23:28.920Z,77.43
2018-11-03T17:26:33.989Z,77.99
2018-11-03T17:29:38.985Z,79.16
2018-11-03T17:32:44.521Z,79.41
2018-11-03T17:35:49.513Z,79.53
2018-11-03T17:38:54.495Z,78.46
2018-11-03T17:41:59.532Z,79.79
2018-11-03T17:45:05.564Z,78.59
2018-11-03T17:48:10.749Z,79.61
2018-11-03T17:51:15.940Z,80.17
2018-11-03T17:54:20.976Z,79.57
2018-11-03T17:57:25.986Z,79.70
2018-11-03T18:00:31.281Z,79.64
2018-11-03T18:03:36.045Z,80.19
2018-11-03T18:06:41.050Z,80.19
2018-11-03T18:09:46.037Z,79.87
2018-11-03T18:12:51.017Z,81.55
2018-11-03T18:15:56.053Z,80.01
2018-11-03T18:19:01.542Z,80.27
2018-11-03T18:22:06.642Z,80.17
2018-11-03T18:25:11.650Z,81.40
2018-11-03T18:28:16.641Z,80.35
2018-11-03T18:31:21.629Z,81.47
2018-11-03T18:34:26.642Z,81.50
2018-11-03T18:37:31.654Z,81.80
2018-11-03T18:40:36.692Z,80.94
2018-11-03T18:43:41.733Z,82.02
2018-11-03T18:46:46.856Z,81.27
2018-11-03T18:49:51.807Z,81.17
2018-11-03T18:52:56.904Z,81.61
2018-11-03T18:56:02.026Z,81.23
2018-11-03T18:59:07.256Z,80.54
2018-11-03T19:02:12.303Z,81.70
2018-11-03T19:05:19.411Z,81.40
2018-11-03T19:08:24.557Z,80.75
2018-11-03T19:11:29.690Z,81.44
2018-11-03T19:14:35.187Z,82.47
2018-11-03T19:17:40.601Z,81.73
2018-11-03T19:20:45.601Z,82.01
2018-11-03T19:23:50.965Z,82.28
2018-11-03T19:26:55.844Z,80.91
2018-11-03T19:30:11.727Z,81.45
2018-11-03T19:33:16.681Z,81.56
2018-11-03T19:36:21.715Z,80.46
2018-11-03T19:39:26.725Z,80.39
2018-11-03T19:42:31.798Z,80.40
2018-11-03T19:45:36.790Z,80.41
2018-11-03T19:48:41.922Z,81.44
2018-11-03T19:51:47.007Z,81.30
2018-11-03T19:54:51.943Z,80.22
2018-11-03T19:57:56.989Z,79.96
2018-11-03T20:01:02.107Z,80.25
2018-11-03T20:04:07.129Z,80.09
2018-11-03T20:07:12.132Z,79.63
2018-11-03T20:10:17.137Z,79.50
2018-11-03T20:13:22.141Z,79.43
2018-11-03T20:16:27.163Z,80.39
2018-11-03T20:19:32.154Z,80.42
2018-11-03T20:22:37.187Z,79.75
2018-11-03T20:25:42.160Z,79.70
2018-11-03T20:28:47.211Z,80.69
2018-11-03T20:31:52.566Z,80.42
2018-11-03T20:34:57.493Z,79.32
2018-11-03T20:38:02.486Z,79.65
2018-11-03T20:41:07.495Z,79.14
2018-11-03T20:44:12.480Z,80.24
2018-11-03T20:47:19.189Z,79.24
2018-11-03T20:50:24.181Z,79.32
2018-11-03T20:53:29.211Z,79.04
2018-11-03T20:56:34.259Z,79.86
2018-11-03T20:59:39.250Z,79.05
2018-11-03T21:02:45.007Z,79.30
2018-11-03T21:05:50.064Z,80.44
2018-11-03T21:08:55.198Z,79.40
2018-11-03T21:15:01.145Z,80.25
2018-11-03T21:18:06.317Z,79.25
2018-11-03T21:21:11.546Z,78.95
2018-11-03T21:24:16.670Z,79.28
2018-11-03T21:27:21.600Z,80.34
2018-11-03T21:30:39.512Z,80.07
2018-11-03T21:33:44.517Z,79.34
2018-11-03T21:36:49.613Z,79.21
2018-11-03T21:39:54.616Z,79.72
2018-11-03T21:43:00.042Z,78.61
2018-11-03T21:46:06.075Z,79.00
2018-11-03T21:49:11.141Z,78.80
2018-11-03T21:52:16.171Z,79.07
2018-11-03T21:55:21.234Z,78.38
2018-11-03T21:58:26.254Z,78.31
2018-11-03T22:01:31.282Z,79.28
2018-11-03T22:04:36.376Z,78.33
2018-11-03T22:07:42.328Z,78.70
2018-11-03T22:10:47.538Z,78.71
2018-11-03T22:13:52.535Z,79.81
2018-11-03T22:16:57.526Z,79.48
2018-11-03T22:20:02.582Z,78.47
2018-11-03T22:23:07.569Z,79.38
2018-11-03T22:26:12.878Z,79.09
2018-11-03T22:29:17.869Z,79.40
2018-11-03T22:32:22.878Z,79.28
2018-11-03T22:35:27.872Z,79.39
2018-11-03T22:38:32.885Z,78.89
2018-11-03T22:41:38.462Z,79.48
2018-11-03T22:44:43.459Z,79.59
2018-11-03T22:47:48.500Z,79.33
2018-11-03T22:50:53.525Z,79.21
2018-11-03T22:53:58.655Z,79.13
2018-11-03T22:57:03.713Z,79.47
2018-11-03T23:03:12.124Z,79.21
2018-11-03T23:06:19.279Z,78.46
2018-11-03T23:09:31.152Z,79.26
2018-11-03T23:12:36.255Z,79.53
2018-11-03T23:15:41.349Z,79.44
2018-11-03T23:18:50.067Z,79.42
2018-11-03T23:21:55.131Z,78.86
2018-11-03T23:25:02.163Z,78.54
2018-11-03T23:28:07.302Z,78.74
2018-11-03T23:31:12.272Z,78.33
2018-11-03T23:34:17.291Z,79.14
2018-11-03T23:37:22.418Z,79.61
2018-11-03T23:40:29.364Z,78.86
2018-11-03T23:43:38.619Z,78.48
2018-11-03T23:46:45.562Z,78.31
2018-11-03T23:49:50.573Z,78.38
2018-11-03T23:52:57.216Z,78.85
2018-11-03T23:56:04.554Z,78.37
2018-11-03T23:59:11.706Z,78.92
